Time;durP1;ratioP1;P1;durP2;ratioP2;P2;SDS_P1;SDS_P2;PMS_P1;PMS_P2;Temp;Humidity;BMP_temperature;BMP_pressure;BME280_temperature;BME280_humidity;BME280_pressure;Samples;Min_cycle;Max_cycle;Signal;HPM_P1;HPM_P2
2023/06/14 06:52:26;;;;;;;6.15;3.83;;;;;;;;;;5227013;23;20061;-65
2023/06/14 06:54:54;;;;;;;4.85;3.95;;;;;;;;;;4965299;28;20086;-66
2023/06/14 06:57:22;;;;;;;7.60;4.50;;;;;;;;;;4970398;28;20538;-65
2023/06/14 06:59:49;;;;;;;6.28;3.67;;;;;;;;;;4966131;28;20041;-66
2023/06/14 07:02:16;;;;;;;5.50;3.78;;;;;;;;;;4965745;28;20372;-65
2023/06/14 07:04:42;;;;;;;6.22;3.92;;;;;;;;;;4963410;28;20029;-66
2023/06/14 07:07:09;;;;;;;9.63;4.15;;;;;;;;;;4962753;28;20018;-66
2023/06/14 07:09:36;;;;;;;8.30;4.03;;;;;;;;;;4962504;28;20023;-65
2023/06/14 07:12:02;;;;;;;10.77;4.43;;;;;;;;;;4963085;28;20017;-66
2023/06/14 07:14:30;;;;;;;7.38;4.65;;;;;;;;;;4964492;28;20073;-66
2023/06/14 07:16:56;;;;;;;4.63;4.10;;;;;;;;;;4966903;28;20031;-66
2023/06/14 07:19:22;;;;;;;5.45;4.10;;;;;;;;;;4965729;28;20504;-65
2023/06/14 07:21:48;;;;;;;7.22;4.00;;;;;;;;;;4960045;28;20193;-66
2023/06/14 07:24:15;;;;;;;4.45;3.53;;;;;;;;;;4960341;28;20037;-66
2023/06/14 07:26:42;;;;;;;4.97;3.40;;;;;;;;;;4961866;28;20047;-65
2023/06/14 07:29:08;;;;;;;4.57;3.17;;;;;;;;;;4973392;28;20019;-65
2023/06/14 07:31:34;;;;;;;4.82;3.35;;;;;;;;;;4969715;28;20026;-66
2023/06/14 07:34:01;;;;;;;5.00;3.08;;;;;;;;;;4969408;28;20023;-66
2023/06/14 07:36:27;;;;;;;6.68;2.95;;;;;;;;;;4967936;28;20039;-66
2023/06/14 07:38:53;;;;;;;4.78;3.08;;;;;;;;;;4965130;28;20015;-66
2023/06/14 07:41:20;;;;;;;5.85;3.47;;;;;;;;;;4973374;28;20031;-66
2023/06/14 07:43:46;;;;;;;9.88;2.90;;;;;;;;;;4973478;28;20475;-66
2023/06/14 07:46:13;;;;;;;3.88;2.88;;;;;;;;;;4973773;28;20031;-66
2023/06/14 07:48:39;;;;;;;6.10;3.40;;;;;;;;;;4973107;28;20031;-66
2023/06/14 07:51:06;;;;;;;3.95;3.17;;;;;;;;;;4973301;28;20043;-66
2023/06/14 07:53:32;;;;;;;4.07;3.60;;;;;;;;;;4961864;28;20388;-66
2023/06/14 07:55:58;;;;;;;4.45;3.03;;;;;;;;;;4992371;28;20022;-66
2023/06/14 07:58:25;;;;;;;5.72;3.42;;;;;;;;;;4978225;28;20057;-66
2023/06/14 08:00:51;;;;;;;4.40;3.47;;;;;;;;;;4967725;28;20472;-66
2023/06/14 08:03:18;;;;;;;3.97;3.15;;;;;;;;;;4965332;28;20037;-66
2023/06/14 08:05:44;;;;;;;7.47;3.83;;;;;;;;;;4972875;28;20031;-66
2023/06/14 08:08:10;;;;;;;4.38;3.08;;;;;;;;;;4972256;28;20019;-66
2023/06/14 08:10:37;;;;;;;4.97;3.10;;;;;;;;;;4972976;28;20030;-66
2023/06/14 08:13:03;;;;;;;5.20;3.03;;;;;;;;;;4972777;28;20446;-66
2023/06/14 08:15:29;;;;;;;6.25;2.47;;;;;;;;;;4955193;28;20031;-65
2023/06/14 08:17:56;;;;;;;3.00;2.70;;;;;;;;;;4962819;28;20033;-66
2023/06/14 08:20:22;;;;;;;4.40;2.30;;;;;;;;;;4972872;28;20015;-66
2023/06/14 08:22:48;;;;;;;5.43;2.67;;;;;;;;;;4972815;28;20035;-66
2023/06/14 08:25:15;;;;;;;3.50;2.63;;;;;;;;;;4955996;28;20074;-66
2023/06/14 08:27:41;;;;;;;2.90;2.55;;;;;;;;;;4960191;28;20018;-66
2023/06/14 08:30:08;;;;;;;4.53;2.55;;;;;;;;;;4972044;28;20033;-66
2023/06/14 08:32:34;;;;;;;6.03;3.40;;;;;;;;;;4965319;28;20035;-66
2023/06/14 08:35:00;;;;;;;5.70;3.55;;;;;;;;;;4955782;29;20031;-65
2023/06/14 08:37:27;;;;;;;6.28;3.33;;;;;;;;;;4957216;28;20035;-65
2023/06/14 08:39:56;;;;;;;3.47;2.90;;;;;;;;;;4957301;29;20468;-66
2023/06/14 08:42:24;;;;;;;5.75;2.75;;;;;;;;;;4957571;28;20033;-66
2023/06/14 08:44:51;;;;;;;3.95;2.72;;;;;;;;;;4958854;28;20023;-66
2023/06/14 08:47:18;;;;;;;3.78;2.50;;;;;;;;;;4976325;28;20027;-65
2023/06/14 08:49:48;;;;;;;3.13;2.53;;;;;;;;;;4975898;28;20080;-67
2023/06/14 08:52:18;;;;;;;3.70;2.73;;;;;;;;;;4975996;28;20113;-66
2023/06/14 08:54:45;;;;;;;2.60;2.40;;;;;;;;;;4979420;28;20056;-67
2023/06/14 08:57:15;;;;;;;3.90;2.15;;;;;;;;;;4976222;28;20035;-67
2023/06/14 08:59:46;;;;;;;2.40;2.20;;;;;;;;;;4976646;28;20023;-66
2023/06/14 09:02:14;;;;;;;7.25;2.45;;;;;;;;;;4975937;28;20561;-66
2023/06/14 09:04:41;;;;;;;4.40;2.92;;;;;;;;;;4971198;28;20030;-66
2023/06/14 09:07:09;;;;;;;3.72;2.30;;;;;;;;;;4956510;28;20039;-67
2023/06/14 09:09:39;;;;;;;4.22;2.30;;;;;;;;;;4965133;28;20479;-66
2023/06/14 09:12:07;;;;;;;5.43;2.47;;;;;;;;;;4975437;28;20499;-67
2023/06/14 09:14:38;;;;;;;3.80;2.50;;;;;;;;;;4976121;28;20037;-66
2023/06/14 09:17:05;;;;;;;4.22;2.35;;;;;;;;;;4975166;28;20043;-66
2023/06/14 09:19:31;;;;;;;4.50;2.13;;;;;;;;;;4975326;28;20493;-67
2023/06/14 09:21:57;;;;;;;4.70;2.47;;;;;;;;;;4975374;28;20045;-66
2023/06/14 09:24:27;;;;;;;3.53;2.30;;;;;;;;;;4974117;28;20435;-66
2023/06/14 09:26:53;;;;;;;2.58;2.20;;;;;;;;;;4975342;28;20033;-67
2023/06/14 09:29:20;;;;;;;4.03;2.42;;;;;;;;;;4975307;28;20019;-66
2023/06/14 09:31:47;;;;;;;6.50;2.05;;;;;;;;;;4975500;28;20418;-66
2023/06/14 09:34:14;;;;;;;2.50;2.30;;;;;;;;;;4975103;28;20019;-67
2023/06/14 09:36:42;;;;;;;2.20;2.00;;;;;;;;;;4975603;28;20503;-67
2023/06/14 09:39:09;;;;;;;4.40;2.28;;;;;;;;;;4974242;28;20030;-67
2023/06/14 09:41:36;;;;;;;4.22;2.40;;;;;;;;;;4974225;28;20042;-67
2023/06/14 09:44:04;;;;;;;4.72;2.25;;;;;;;;;;4974873;28;20045;-67
2023/06/14 09:46:31;;;;;;;4.97;2.08;;;;;;;;;;4975285;28;20029;-67
2023/06/14 09:48:58;;;;;;;3.33;2.20;;;;;;;;;;4975253;28;20031;-67
2023/06/14 09:51:25;;;;;;;3.42;2.42;;;;;;;;;;4975322;28;20522;-67
2023/06/14 09:53:51;;;;;;;4.35;2.28;;;;;;;;;;4975337;28;20022;-67
2023/06/14 09:56:29;;;;;;;3.38;2.00;;;;;;;;;;4989658;28;20043;-67
2023/06/14 09:58:59;;;;;;;3.42;2.63;;;;;;;;;;4993409;28;20026;-67
2023/06/14 10:01:29;;;;;;;5.13;2.28;;;;;;;;;;4975018;28;20027;-67
2023/06/14 10:03:56;;;;;;;7.97;2.55;;;;;;;;;;4974193;28;20066;-67
2023/06/14 10:06:24;;;;;;;2.75;2.25;;;;;;;;;;4975186;28;20023;-67
2023/06/14 10:08:51;;;;;;;3.38;2.25;;;;;;;;;;4974119;28;20027;-67
2023/06/14 10:11:18;;;;;;;3.60;2.20;;;;;;;;;;4975215;28;20027;-67
2023/06/14 10:13:45;;;;;;;4.93;2.40;;;;;;;;;;4974673;28;20026;-68
2023/06/14 10:16:15;;;;;;;4.07;2.60;;;;;;;;;;4974713;28;20045;-67
2023/06/14 10:19:00;;;;;;;3.47;2.67;;;;;;;;;;4975229;28;20027;-67
2023/06/14 10:21:38;;;;;;;4.07;2.17;;;;;;;;;;4974230;28;20031;-67
2023/06/14 10:24:07;;;;;;;4.88;2.50;;;;;;;;;;4975091;28;20037;-68
2023/06/14 10:26:33;;;;;;;3.53;2.50;;;;;;;;;;4975100;28;20029;-67
2023/06/14 10:29:09;;;;;;;6.80;2.63;;;;;;;;;;4975103;28;20057;-67
2023/06/14 10:31:43;;;;;;;3.70;2.78;;;;;;;;;;4972034;28;20029;-67
2023/06/14 10:34:09;;;;;;;3.15;2.80;;;;;;;;;;4962966;28;20049;-67
2023/06/14 10:36:35;;;;;;;3.08;2.58;;;;;;;;;;4964802;28;20041;-67
2023/06/14 10:39:07;;;;;;;3.00;2.70;;;;;;;;;;4972594;28;20030;-67
2023/06/14 10:41:35;;;;;;;3.35;2.53;;;;;;;;;;4957066;28;20103;-68
2023/06/14 10:44:14;;;;;;;4.72;2.80;;;;;;;;;;4957470;28;20030;-67
2023/06/14 10:46:40;;;;;;;2.95;2.60;;;;;;;;;;4954709;29;20407;-67
2023/06/14 10:49:09;;;;;;;3.35;2.47;;;;;;;;;;4954582;29;20023;-67
2023/06/14 10:51:46;;;;;;;3.20;2.60;;;;;;;;;;4955242;28;20042;-66
2023/06/14 10:54:16;;;;;;;5.68;2.85;;;;;;;;;;4954902;28;20035;-67
2023/06/14 10:56:49;;;;;;;5.30;2.92;;;;;;;;;;4991537;28;20049;-67
2023/06/14 10:59:16;;;;;;;3.08;2.78;;;;;;;;;;4992840;28;20025;-67
2023/06/14 11:01:45;;;;;;;3.13;2.92;;;;;;;;;;4989286;28;20031;-67
2023/06/14 11:04:12;;;;;;;3.22;2.92;;;;;;;;;;4970159;28;20049;-67
2023/06/14 11:06:49;;;;;;;4.40;3.10;;;;;;;;;;4974214;28;20034;-67
2023/06/14 11:09:32;;;;;;;4.13;3.40;;;;;;;;;;4974178;28;20022;-67
2023/06/14 11:11:59;;;;;;;7.13;3.00;;;;;;;;;;4973655;28;20041;-67
2023/06/14 11:14:26;;;;;;;4.13;2.67;;;;;;;;;;4973593;28;20029;-67
2023/06/14 11:16:52;;;;;;;3.80;3.08;;;;;;;;;;4972230;28;20046;-68
2023/06/14 11:19:19;;;;;;;5.22;3.08;;;;;;;;;;4973483;28;20033;-67
2023/06/14 11:21:47;;;;;;;3.33;2.97;;;;;;;;;;4973677;28;20029;-67
2023/06/14 11:24:14;;;;;;;4.55;4.03;;;;;;;;;;4973821;28;20027;-66
2023/06/14 11:26:41;;;;;;;5.25;3.45;;;;;;;;;;4973736;28;20027;-67
2023/06/14 11:29:07;;;;;;;4.47;3.33;;;;;;;;;;4973348;28;20484;-66
2023/06/14 11:31:34;;;;;;;3.42;3.13;;;;;;;;;;4973744;28;20035;-67
2023/06/14 11:34:00;;;;;;;4.28;3.17;;;;;;;;;;4971856;28;20035;-67
2023/06/14 11:36:29;;;;;;;7.95;3.30;;;;;;;;;;4972909;28;20030;-67
2023/06/14 11:38:59;;;;;;;3.53;3.27;;;;;;;;;;4972899;28;20027;-65
2023/06/14 11:41:26;;;;;;;4.22;3.47;;;;;;;;;;4973105;28;20035;-67
2023/06/14 11:43:55;;;;;;;4.72;3.60;;;;;;;;;;4958620;28;20031;-67
2023/06/14 11:46:24;;;;;;;3.78;3.47;;;;;;;;;;4953992;29;20042;-67
2023/06/14 11:48:52;;;;;;;6.95;3.53;;;;;;;;;;4953980;28;20031;-67
2023/06/14 11:51:20;;;;;;;4.20;3.80;;;;;;;;;;4953943;29;20047;-66
2023/06/14 11:53:47;;;;;;;8.93;4.20;;;;;;;;;;4953834;28;20546;-67
2023/06/14 11:56:13;;;;;;;4.40;4.00;;;;;;;;;;4982547;28;20056;-67
2023/06/14 11:58:40;;;;;;;5.28;4.63;;;;;;;;;;4992188;28;20018;-66
2023/06/14 12:01:06;;;;;;;7.75;5.03;;;;;;;;;;4992268;28;20482;-66
2023/06/14 12:03:33;;;;;;;4.45;4.05;;;;;;;;;;4984272;28;20026;-66
2023/06/14 12:06:03;;;;;;;8.40;4.80;;;;;;;;;;4956764;28;20028;-67
2023/06/14 12:08:39;;;;;;;6.82;4.60;;;;;;;;;;4953372;28;20480;-65
2023/06/14 12:11:06;;;;;;;6.82;4.72;;;;;;;;;;4953354;28;20024;-64
2023/06/14 12:13:32;;;;;;;9.43;4.35;;;;;;;;;;4958540;28;20037;-67
2023/06/14 12:15:59;;;;;;;7.78;4.97;;;;;;;;;;4972014;28;20035;-66
2023/06/14 12:18:37;;;;;;;10.48;4.90;;;;;;;;;;4972624;28;20038;-65
2023/06/14 12:21:07;;;;;;;6.45;5.18;;;;;;;;;;4972349;28;20038;-65
2023/06/14 12:23:47;;;;;;;5.43;4.70;;;;;;;;;;4972573;28;20023;-64
2023/06/14 12:26:21;;;;;;;6.38;4.30;;;;;;;;;;4972765;28;20053;-64
2023/06/14 12:28:48;;;;;;;6.53;5.07;;;;;;;;;;4972141;28;20026;-64
2023/06/14 12:31:16;;;;;;;10.70;4.43;;;;;;;;;;4972719;28;20034;-65
2023/06/14 12:33:42;;;;;;;5.03;4.40;;;;;;;;;;4972564;28;20471;-65
2023/06/14 12:36:10;;;;;;;5.05;4.65;;;;;;;;;;4969284;28;20038;-65
2023/06/14 12:38:39;;;;;;;6.95;4.47;;;;;;;;;;4964868;28;20027;-64
2023/06/14 12:41:07;;;;;;;6.03;4.33;;;;;;;;;;4952462;28;20043;-65
2023/06/14 12:43:33;;;;;;;5.93;5.20;;;;;;;;;;4960864;28;20257;-66
2023/06/14 12:46:00;;;;;;;7.43;4.13;;;;;;;;;;4954545;28;20023;-65
2023/06/14 12:48:31;;;;;;;6.70;5.20;;;;;;;;;;4965780;28;20036;-66
2023/06/14 12:50:57;;;;;;;;;;;;;;;;;;4961121;28;20484;-64
2023/06/14 12:53:24;;;;;;;7.47;4.95;;;;;;;;;;4953142;28;19920;-65
2023/06/14 12:55:50;;;;;;;8.57;4.78;;;;;;;;;;4975954;28;20030;-66
2023/06/14 12:58:19;;;;;;;7.53;4.90;;;;;;;;;;4974034;28;20561;-66
2023/06/14 13:00:46;;;;;;;4.93;4.38;;;;;;;;;;4952910;28;20032;-66
2023/06/14 13:03:12;;;;;;;5.07;4.45;;;;;;;;;;4953138;28;20037;-66
2023/06/14 13:05:41;;;;;;;5.13;4.63;;;;;;;;;;4952722;29;20039;-64
2023/06/14 13:08:11;;;;;;;7.05;4.45;;;;;;;;;;4971254;28;20146;-67
2023/06/14 13:10:37;;;;;;;5.18;4.63;;;;;;;;;;4971045;28;20026;-66
2023/06/14 13:13:03;;;;;;;16.45;4.60;;;;;;;;;;4972482;28;20037;-65
2023/06/14 13:15:30;;;;;;;7.20;5.03;;;;;;;;;;4953887;28;20472;-66
2023/06/14 13:17:56;;;;;;;7.03;4.82;;;;;;;;;;4952582;29;20073;-67
2023/06/14 13:20:23;;;;;;;6.00;4.40;;;;;;;;;;4954232;28;20073;-67
2023/06/14 13:22:49;;;;;;;7.70;4.13;;;;;;;;;;4956595;29;20061;-65
2023/06/14 13:25:15;;;;;;;6.65;4.78;;;;;;;;;;4956210;28;20101;-66
2023/06/14 13:27:42;;;;;;;5.20;4.70;;;;;;;;;;4956216;29;20472;-66
2023/06/14 13:30:09;;;;;;;5.97;5.10;;;;;;;;;;4956034;28;20087;-66
2023/06/14 13:32:35;;;;;;;6.78;5.00;;;;;;;;;;4956075;29;20029;-66
2023/06/14 13:35:03;;;;;;;9.55;4.72;;;;;;;;;;4958114;28;20035;-66
2023/06/14 13:37:30;;;;;;;5.50;4.97;;;;;;;;;;4956298;28;20038;-66
2023/06/14 13:39:56;;;;;;;8.05;5.63;;;;;;;;;;4963464;28;20045;-66
2023/06/14 13:42:23;;;;;;;14.70;6.00;;;;;;;;;;4975283;28;20023;-66
2023/06/14 13:44:51;;;;;;;7.38;6.10;;;;;;;;;;4963576;28;20041;-66
2023/06/14 13:47:17;;;;;;;10.00;6.50;;;;;;;;;;4954362;29;20039;-66
2023/06/14 13:49:43;;;;;;;6.35;5.75;;;;;;;;;;4962531;28;20023;-66
2023/06/14 13:52:11;;;;;;;9.32;6.30;;;;;;;;;;4974973;28;20065;-65
2023/06/14 13:54:37;;;;;;;6.90;6.20;;;;;;;;;;4973598;28;20034;-65
2023/06/14 13:57:04;;;;;;;9.75;6.32;;;;;;;;;;4974074;28;20039;-66
2023/06/14 13:59:31;;;;;;;6.68;5.95;;;;;;;;;;4955715;28;20023;-66
2023/06/14 14:01:57;;;;;;;8.18;6.20;;;;;;;;;;4955467;29;20016;-67
2023/06/14 14:04:23;;;;;;;7.25;5.90;;;;;;;;;;4958174;28;20027;-66
2023/06/14 14:06:49;;;;;;;6.50;5.63;;;;;;;;;;4955440;29;20035;-66
2023/06/14 14:09:16;;;;;;;6.35;5.75;;;;;;;;;;4954876;28;20030;-66
2023/06/14 14:11:42;;;;;;;8.13;5.80;;;;;;;;;;4956010;29;20037;-66
2023/06/14 14:14:09;;;;;;;7.25;5.90;;;;;;;;;;4955156;29;20041;-66
2023/06/14 14:16:36;;;;;;;8.75;5.70;;;;;;;;;;4955723;29;20027;-66
2023/06/14 14:19:03;;;;;;;7.22;6.32;;;;;;;;;;4972695;28;20011;-66
2023/06/14 14:21:30;;;;;;;14.25;6.22;;;;;;;;;;4973653;28;20035;-65
2023/06/14 14:23:56;;;;;;;8.63;5.90;;;;;;;;;;4974379;28;20035;-66
2023/06/14 14:26:23;;;;;;;7.32;6.57;;;;;;;;;;4974881;28;20080;-66
2023/06/14 14:28:50;;;;;;;7.22;6.22;;;;;;;;;;4974944;28;20027;-66
2023/06/14 14:31:16;;;;;;;7.22;6.50;;;;;;;;;;4973175;28;20030;-66
2023/06/14 14:33:42;;;;;;;12.70;6.70;;;;;;;;;;4975214;28;20034;-66
2023/06/14 14:36:08;;;;;;;7.70;6.93;;;;;;;;;;4970662;28;20026;-66
2023/06/14 14:38:35;;;;;;;8.20;6.90;;;;;;;;;;4974336;28;20043;-65
2023/06/14 14:41:01;;;;;;;9.05;6.80;;;;;;;;;;4974888;28;20027;-66
2023/06/14 14:43:30;;;;;;;9.55;6.97;;;;;;;;;;4973479;28;20019;-64
2023/06/14 14:45:57;;;;;;;10.52;7.00;;;;;;;;;;4974579;28;20019;-66
2023/06/14 14:48:23;;;;;;;13.27;7.53;;;;;;;;;;4974010;28;20023;-66
2023/06/14 14:50:50;;;;;;;9.95;7.88;;;;;;;;;;4973129;28;20027;-66
2023/06/14 14:53:16;;;;;;;10.13;7.50;;;;;;;;;;4973744;28;20041;-66
2023/06/14 14:55:43;;;;;;;10.05;7.35;;;;;;;;;;4985313;28;20022;-66
2023/06/14 14:58:09;;;;;;;10.52;7.80;;;;;;;;;;4993956;28;20560;-66
2023/06/14 15:00:36;;;;;;;9.43;6.82;;;;;;;;;;4993835;28;20386;-66
2023/06/14 15:03:02;;;;;;;7.85;7.03;;;;;;;;;;4994215;28;20092;-66
2023/06/14 15:05:29;;;;;;;8.05;6.95;;;;;;;;;;4993758;28;20014;-66
2023/06/14 15:07:55;;;;;;;10.85;6.72;;;;;;;;;;4993351;28;20022;-66
2023/06/14 15:10:21;;;;;;;9.70;6.88;;;;;;;;;;4993730;28;20497;-66
2023/06/14 15:12:47;;;;;;;8.30;6.13;;;;;;;;;;4993623;28;20040;-66
2023/06/14 15:15:14;;;;;;;7.00;6.30;;;;;;;;;;4993622;28;20372;-66
2023/06/14 15:17:40;;;;;;;6.90;6.20;;;;;;;;;;4993665;28;20036;-66
2023/06/14 15:20:07;;;;;;;6.65;5.90;;;;;;;;;;4993319;28;20040;-66
2023/06/14 15:22:33;;;;;;;7.60;5.38;;;;;;;;;;4993451;28;20029;-66
2023/06/14 15:25:00;;;;;;;13.20;5.63;;;;;;;;;;4993830;28;20048;-66
2023/06/14 15:27:27;;;;;;;7.68;5.63;;;;;;;;;;4993342;28;20788;-66
2023/06/14 15:29:53;;;;;;;6.03;5.28;;;;;;;;;;4993481;28;20022;-66
2023/06/14 15:32:20;;;;;;;6.95;5.00;;;;;;;;;;4993597;28;20033;-65
2023/06/14 15:34:46;;;;;;;5.93;5.10;;;;;;;;;;4993351;28;20030;-66
2023/06/14 15:37:13;;;;;;;8.02;5.28;;;;;;;;;;4992839;28;20366;-66
2023/06/14 15:39:39;;;;;;;6.10;5.00;;;;;;;;;;4993306;28;20501;-66
2023/06/14 15:42:07;;;;;;;10.68;5.53;;;;;;;;;;4992850;28;20026;-66
2023/06/14 15:44:33;;;;;;;6.47;4.90;;;;;;;;;;4992983;28;20386;-66
2023/06/14 15:46:59;;;;;;;7.50;5.18;;;;;;;;;;4993273;28;20018;-66
2023/06/14 15:49:26;;;;;;;5.00;4.50;;;;;;;;;;4993214;28;20434;-66
2023/06/14 15:51:52;;;;;;;6.18;4.93;;;;;;;;;;4992556;28;20044;-66
2023/06/14 15:54:19;;;;;;;6.60;4.82;;;;;;;;;;4993179;28;20380;-66
2023/06/14 15:56:45;;;;;;;6.88;4.82;;;;;;;;;;4993040;28;20036;-67
2023/06/14 15:59:11;;;;;;;6.57;4.75;;;;;;;;;;4993206;28;20030;-66
2023/06/14 16:01:38;;;;;;;5.82;4.43;;;;;;;;;;4992917;28;20041;-66
2023/06/14 16:04:05;;;;;;;4.82;4.30;;;;;;;;;;4992464;28;20014;-65
2023/06/14 16:06:31;;;;;;;5.50;3.92;;;;;;;;;;4992970;28;20022;-66
2023/06/14 16:08:58;;;;;;;5.05;3.85;;;;;;;;;;4992985;28;20483;-66
2023/06/14 16:11:24;;;;;;;5.57;3.60;;;;;;;;;;4992680;28;20026;-66
2023/06/14 16:13:50;;;;;;;6.03;4.40;;;;;;;;;;4991969;28;20018;-66
2023/06/14 16:16:17;;;;;;;4.57;3.40;;;;;;;;;;4993055;28;20037;-66
2023/06/14 16:18:43;;;;;;;5.25;4.18;;;;;;;;;;4992589;28;20037;-66
2023/06/14 16:21:10;;;;;;;6.78;4.30;;;;;;;;;;4992698;28;20022;-66
2023/06/14 16:23:37;;;;;;;6.03;4.60;;;;;;;;;;4992984;28;20030;-66
2023/06/14 16:26:03;;;;;;;5.22;4.30;;;;;;;;;;4993132;28;20037;-66
2023/06/14 16:28:31;;;;;;;6.70;4.35;;;;;;;;;;4992641;28;20654;-66
2023/06/14 16:30:58;;;;;;;5.85;4.47;;;;;;;;;;4992915;28;20019;-66
2023/06/14 16:33:24;;;;;;;4.72;4.28;;;;;;;;;;4992303;28;20038;-66
2023/06/14 16:35:50;;;;;;;7.47;4.43;;;;;;;;;;4992766;28;20023;-66
2023/06/14 16:38:16;;;;;;;5.97;4.40;;;;;;;;;;4992529;28;20038;-66
2023/06/14 16:40:43;;;;;;;5.10;4.22;;;;;;;;;;4992463;28;20372;-66
2023/06/14 16:43:09;;;;;;;6.25;4.90;;;;;;;;;;4992750;28;20030;-66
2023/06/14 16:45:35;;;;;;;7.07;5.05;;;;;;;;;;4992455;28;20015;-66
2023/06/14 16:48:02;;;;;;;6.13;5.00;;;;;;;;;;4992064;28;20398;-66
2023/06/14 16:50:28;;;;;;;8.18;4.85;;;;;;;;;;4992389;28;20022;-66
2023/06/14 16:52:55;;;;;;;8.90;5.35;;;;;;;;;;4992362;28;20068;-66
2023/06/14 16:55:21;;;;;;;5.18;4.68;;;;;;;;;;4994024;28;20026;-65
2023/06/14 16:57:47;;;;;;;7.95;5.07;;;;;;;;;;4995988;28;20034;-66
2023/06/14 17:00:14;;;;;;;6.90;4.97;;;;;;;;;;4994907;28;20026;-66
2023/06/14 17:02:40;;;;;;;8.52;5.28;;;;;;;;;;4995825;28;20048;-66
2023/06/14 17:05:07;;;;;;;6.85;4.85;;;;;;;;;;4995905;28;20069;-66
2023/06/14 17:07:33;;;;;;;6.10;5.00;;;;;;;;;;4996046;28;20030;-66
2023/06/14 17:10:00;;;;;;;7.07;4.47;;;;;;;;;;4995869;28;20364;-66
2023/06/14 17:12:26;;;;;;;8.38;4.63;;;;;;;;;;4995946;28;20037;-66
2023/06/14 17:14:52;;;;;;;5.72;5.00;;;;;;;;;;4995888;28;20060;-67
2023/06/14 17:17:19;;;;;;;5.55;5.03;;;;;;;;;;4995392;28;20043;-66
2023/06/14 17:19:45;;;;;;;6.97;4.85;;;;;;;;;;4995886;28;20022;-66
2023/06/14 17:22:11;;;;;;;6.38;5.68;;;;;;;;;;4995765;28;20030;-66
2023/06/14 17:24:38;;;;;;;5.65;5.10;;;;;;;;;;4995681;28;20418;-66
2023/06/14 17:27:05;;;;;;;5.63;5.03;;;;;;;;;;4996083;28;20084;-66
2023/06/14 17:29:31;;;;;;;5.57;4.80;;;;;;;;;;4995882;28;20024;-66
2023/06/14 17:31:58;;;;;;;7.43;4.70;;;;;;;;;;4995207;28;20022;-66
2023/06/14 17:34:24;;;;;;;7.38;5.30;;;;;;;;;;4994647;28;20031;-67
2023/06/14 17:36:50;;;;;;;6.13;4.78;;;;;;;;;;4995540;28;20034;-66
2023/06/14 17:39:20;;;;;;;7.53;4.75;;;;;;;;;;4995617;28;20029;-65
2023/06/14 17:41:46;;;;;;;5.47;4.88;;;;;;;;;;4995388;28;20522;-66
2023/06/14 17:44:13;;;;;;;11.10;5.00;;;;;;;;;;4995730;28;20033;-66
2023/06/14 17:46:39;;;;;;;7.65;5.40;;;;;;;;;;4994871;28;20380;-66
2023/06/14 17:49:05;;;;;;;7.93;4.78;;;;;;;;;;4995582;28;20021;-66
2023/06/14 17:51:32;;;;;;;6.35;5.47;;;;;;;;;;4995104;28;20049;-66
2023/06/14 17:53:58;;;;;;;11.13;4.88;;;;;;;;;;4995388;28;20030;-66
2023/06/14 17:56:24;;;;;;;7.20;4.90;;;;;;;;;;4995313;28;20022;-65
2023/06/14 17:58:52;;;;;;;5.82;4.60;;;;;;;;;;4995291;28;20087;-66
2023/06/14 18:01:20;;;;;;;5.38;4.68;;;;;;;;;;4994790;28;20018;-66
2023/06/14 18:03:47;;;;;;;5.28;4.15;;;;;;;;;;4995151;28;20487;-66
2023/06/14 18:06:13;;;;;;;9.57;4.80;;;;;;;;;;4994855;28;20027;-66
2023/06/14 18:08:39;;;;;;;7.97;4.85;;;;;;;;;;4994939;28;20026;-66
2023/06/14 18:11:07;;;;;;;7.25;4.47;;;;;;;;;;4994962;28;20624;-66
2023/06/14 18:13:33;;;;;;;7.15;4.63;;;;;;;;;;4995248;28;20026;-66
2023/06/14 18:15:59;;;;;;;9.73;4.63;;;;;;;;;;4994454;28;20029;-66
2023/06/14 18:18:26;;;;;;;10.68;4.47;;;;;;;;;;4994941;28;20622;-66
2023/06/14 18:20:52;;;;;;;6.55;4.90;;;;;;;;;;4995072;28;20038;-65
2023/06/14 18:23:18;;;;;;;8.70;4.90;;;;;;;;;;4994931;28;20022;-66
2023/06/14 18:25:45;;;;;;;6.85;5.05;;;;;;;;;;4994820;28;20379;-66
2023/06/14 18:28:11;;;;;;;5.18;4.47;;;;;;;;;;4994594;28;20030;-66
2023/06/14 18:30:38;;;;;;;11.80;4.63;;;;;;;;;;4994256;28;20038;-66
2023/06/14 18:33:04;;;;;;;10.10;4.88;;;;;;;;;;4994569;28;20041;-66
2023/06/14 18:35:30;;;;;;;7.80;4.68;;;;;;;;;;4994578;28;20026;-66
2023/06/14 18:37:57;;;;;;;8.60;4.80;;;;;;;;;;4994270;28;20034;-66
2023/06/14 18:40:23;;;;;;;8.25;4.35;;;;;;;;;;4994302;28;20394;-66
2023/06/14 18:42:50;;;;;;;8.90;4.95;;;;;;;;;;4965671;28;20037;-65
2023/06/14 18:45:16;;;;;;;9.52;4.57;;;;;;;;;;4955268;29;20034;-64
2023/06/14 18:47:42;;;;;;;6.88;4.88;;;;;;;;;;4955636;28;20031;-66
2023/06/14 18:50:09;;;;;;;6.57;4.68;;;;;;;;;;4955579;28;20043;-66
2023/06/14 18:52:35;;;;;;;11.30;4.65;;;;;;;;;;4955242;28;20045;-66
2023/06/14 18:55:02;;;;;;;8.85;5.20;;;;;;;;;;4962195;28;20031;-66
2023/06/14 18:57:28;;;;;;;8.60;4.78;;;;;;;;;;4974605;28;20041;-67
2023/06/14 18:59:54;;;;;;;7.15;4.93;;;;;;;;;;4974318;28;20023;-66
2023/06/14 19:02:21;;;;;;;7.78;5.07;;;;;;;;;;4974597;28;20027;-66
2023/06/14 19:04:47;;;;;;;11.23;5.07;;;;;;;;;;4974486;28;20483;-66
2023/06/14 19:07:13;;;;;;;10.93;4.82;;;;;;;;;;4974579;28;20037;-66
2023/06/14 19:09:40;;;;;;;10.88;4.93;;;;;;;;;;4974492;28;20472;-66
2023/06/14 19:12:06;;;;;;;12.20;4.75;;;;;;;;;;4974503;28;20401;-66
2023/06/14 19:14:33;;;;;;;13.75;4.97;;;;;;;;;;4974172;28;20021;-66
2023/06/14 19:16:59;;;;;;;9.43;5.18;;;;;;;;;;4973919;28;20483;-67
2023/06/14 19:19:25;;;;;;;10.57;4.90;;;;;;;;;;4974047;28;20391;-66
2023/06/14 19:21:52;;;;;;;12.52;4.30;;;;;;;;;;4974345;28;20027;-65
2023/06/14 19:24:18;;;;;;;10.40;5.03;;;;;;;;;;4974430;28;20038;-66
2023/06/14 19:26:45;;;;;;;11.27;5.03;;;;;;;;;;4974462;28;20019;-65
2023/06/14 19:29:11;;;;;;;10.35;5.20;;;;;;;;;;4973710;28;20030;-65
2023/06/14 19:31:37;;;;;;;10.85;5.03;;;;;;;;;;4974428;28;20027;-66
2023/06/14 19:34:04;;;;;;;8.98;5.40;;;;;;;;;;4974042;28;20019;-66
2023/06/14 19:36:30;;;;;;;7.25;4.55;;;;;;;;;;4973729;28;20073;-65
2023/06/14 19:38:57;;;;;;;8.45;4.97;;;;;;;;;;4974080;28;20023;-66
2023/06/14 19:41:27;;;;;;;11.35;5.10;;;;;;;;;;4973897;28;20034;-65
2023/06/14 19:43:56;;;;;;;9.30;5.13;;;;;;;;;;4973679;28;20483;-66
2023/06/14 19:46:25;;;;;;;9.25;5.20;;;;;;;;;;4974021;28;20414;-66
2023/06/14 19:48:51;;;;;;;6.88;4.75;;;;;;;;;;4973805;28;20027;-66
2023/06/14 19:51:17;;;;;;;9.35;4.50;;;;;;;;;;4973509;28;20623;-65
2023/06/14 19:53:44;;;;;;;7.72;5.00;;;;;;;;;;4973623;28;20498;-65
2023/06/14 19:56:12;;;;;;;8.40;5.10;;;;;;;;;;4987803;28;20022;-65
2023/06/14 19:58:39;;;;;;;7.63;4.63;;;;;;;;;;4993155;28;20031;-65
2023/06/14 20:01:05;;;;;;;10.82;5.25;;;;;;;;;;4993778;28;20023;-66
2023/06/14 20:03:32;;;;;;;10.27;5.35;;;;;;;;;;4993117;28;20029;-66
2023/06/14 20:05:58;;;;;;;7.35;5.18;;;;;;;;;;4993350;28;20030;-66
2023/06/14 20:08:24;;;;;;;8.32;4.97;;;;;;;;;;4993307;28;20025;-66
2023/06/14 20:10:52;;;;;;;7.55;4.78;;;;;;;;;;4992534;28;20042;-65
2023/06/14 20:13:19;;;;;;;6.05;5.00;;;;;;;;;;4992926;28;20483;-66
2023/06/14 20:15:45;;;;;;;8.07;4.68;;;;;;;;;;4993081;28;20026;-65
2023/06/14 20:18:12;;;;;;;8.88;4.68;;;;;;;;;;4992950;28;20042;-65
2023/06/14 20:20:41;;;;;;;9.50;4.70;;;;;;;;;;4993038;28;20076;-65
2023/06/14 20:23:08;;;;;;;8.70;4.55;;;;;;;;;;4992742;28;20019;-66
2023/06/14 20:25:34;;;;;;;10.95;4.90;;;;;;;;;;4992568;28;20483;-66
2023/06/14 20:28:00;;;;;;;8.60;5.10;;;;;;;;;;4993044;28;20028;-66
2023/06/14 20:30:27;;;;;;;5.97;4.70;;;;;;;;;;4996460;28;20038;-65
2023/06/14 20:32:53;;;;;;;9.13;5.15;;;;;;;;;;4997340;28;20088;-66
2023/06/14 20:35:19;;;;;;;9.32;4.65;;;;;;;;;;4997265;28;20028;-66
2023/06/14 20:37:46;;;;;;;11.10;4.60;;;;;;;;;;4996593;28;20034;-66
2023/06/14 20:40:22;;;;;;;4.82;4.03;;;;;;;;;;4997075;28;20036;-66
2023/06/14 20:42:49;;;;;;;9.30;4.38;;;;;;;;;;4996561;28;20556;-66
2023/06/14 20:45:16;;;;;;;10.00;4.90;;;;;;;;;;4996744;28;20022;-66
2023/06/14 20:47:43;;;;;;;7.93;4.90;;;;;;;;;;4997305;28;20031;-65
2023/06/14 20:50:11;;;;;;;8.15;4.15;;;;;;;;;;4996631;28;20026;-66
2023/06/14 20:52:38;;;;;;;10.10;4.75;;;;;;;;;;4996583;28;20054;-65
2023/06/14 20:55:04;;;;;;;14.18;4.30;;;;;;;;;;4996320;28;20025;-66
2023/06/14 20:57:31;;;;;;;7.47;4.30;;;;;;;;;;4996486;28;20038;-66
2023/06/14 20:59:57;;;;;;;5.00;4.43;;;;;;;;;;4996665;28;20025;-66
2023/06/14 21:02:24;;;;;;;6.88;4.60;;;;;;;;;;4996500;28;20030;-65
2023/06/14 21:04:50;;;;;;;11.88;4.68;;;;;;;;;;4995337;28;20029;-65
2023/06/14 21:07:17;;;;;;;10.13;4.38;;;;;;;;;;4996262;28;20053;-65
2023/06/14 21:09:44;;;;;;;10.00;5.00;;;;;;;;;;4996148;28;20027;-65
2023/06/14 21:12:11;;;;;;;8.48;4.93;;;;;;;;;;4996466;28;20084;-66
2023/06/14 21:14:38;;;;;;;6.68;5.00;;;;;;;;;;4996433;28;20516;-65
2023/06/14 21:17:05;;;;;;;8.45;4.70;;;;;;;;;;4996263;28;20096;-65
2023/06/14 21:19:31;;;;;;;9.27;4.28;;;;;;;;;;4996286;28;20037;-66
2023/06/14 21:21:58;;;;;;;10.40;4.53;;;;;;;;;;4995937;28;20027;-66
2023/06/14 21:24:24;;;;;;;9.27;4.40;;;;;;;;;;4995633;28;20033;-66
2023/06/14 21:26:50;;;;;;;7.53;4.88;;;;;;;;;;4996460;28;20053;-65
2023/06/14 21:29:17;;;;;;;9.88;4.50;;;;;;;;;;4996443;28;20048;-65
2023/06/14 21:31:43;;;;;;;15.60;5.13;;;;;;;;;;4996006;28;20027;-65